Time;durP1;ratioP1;P1;durP2;ratioP2;P2;SDS_P1;SDS_P2;PMS_P1;PMS_P2;Temp;Humidity;BMP_temperature;BMP_pressure;BME280_temperature;BME280_humidity;BME280_pressure;Samples;Min_cycle;Max_cycle;Signal;HPM_P1;HPM_P2
2020/12/07 00:01:12;;;;;;;13.18;6.30;;;;;;;-0.41;61.50;101808.23;1711061;83;22008;-53
2020/12/07 00:03:40;;;;;;;11.88;5.92;;;;;;;-0.42;61.67;101805.16;1714227;83;21169;-54
2020/12/07 00:06:09;;;;;;;15.13;6.87;;;;;;;-0.40;61.83;101802.25;1708539;83;21175;-53
2020/12/07 00:08:37;;;;;;;13.30;7.03;;;;;;;-0.40;61.79;101803.55;1715024;83;21620;-54
2020/12/07 00:11:10;;;;;;;14.53;6.15;;;;;;;-0.40;61.87;101807.42;1706536;83;21244;-54
2020/12/07 00:13:38;;;;;;;13.28;7.15;;;;;;;-0.39;61.93;101797.56;1698378;83;21367;-54
2020/12/07 00:16:09;;;;;;;12.60;6.10;;;;;;;-0.40;61.55;101802.25;1710679;83;21526;-54
2020/12/07 00:18:37;;;;;;;12.55;6.90;;;;;;;-0.43;61.73;101797.81;1704802;83;21152;-54
2020/12/07 00:21:09;;;;;;;10.98;5.53;;;;;;;-0.44;61.97;101799.03;1711568;83;21185;-54
2020/12/07 00:23:37;;;;;;;13.35;6.95;;;;;;;-0.46;62.00;101799.84;1710033;83;21618;-54
2020/12/07 00:26:06;;;;;;;11.03;5.17;;;;;;;-0.49;62.08;101794.88;1702102;83;22099;-53
2020/12/07 00:28:34;;;;;;;9.65;5.33;;;;;;;-0.52;62.03;101793.03;1714535;83;21109;-53
2020/12/07 00:31:05;;;;;;;19.05;8.05;;;;;;;-0.53;62.16;101794.22;1706426;83;21395;-54
2020/12/07 00:33:33;;;;;;;13.68;6.47;;;;;;;-0.52;62.22;101789.53;1708969;83;21153;-54
2020/12/07 00:36:00;;;;;;;15.32;7.47;;;;;;;-0.53;62.39;101789.95;1704069;83;21620;-54
2020/12/07 00:38:28;;;;;;;16.25;7.17;;;;;;;-0.52;62.49;101783.97;1701739;83;21254;-54
2020/12/07 00:40:55;;;;;;;13.55;6.10;;;;;;;-0.55;62.49;101786.77;1690834;83;21106;-53
2020/12/07 00:43:23;;;;;;;17.05;7.03;;;;;;;-0.55;62.59;101790.66;1662963;85;21565;-53
2020/12/07 00:45:52;;;;;;;18.42;6.85;;;;;;;-0.54;62.71;101791.14;1703716;83;21076;-54
2020/12/07 00:48:19;;;;;;;14.85;5.95;;;;;;;-0.49;62.69;101794.88;1697986;84;21589;-53
2020/12/07 00:50:47;;;;;;;14.70;6.85;;;;;;;-0.55;62.89;101793.23;1684562;84;21201;-58
2020/12/07 00:53:15;;;;;;;13.53;7.47;;;;;;;-0.54;62.81;101790.75;1696228;83;21114;-54
2020/12/07 00:55:43;;;;;;;14.85;6.78;;;;;;;-0.49;62.92;101787.12;1680755;83;21642;-54
2020/12/07 00:58:10;;;;;;;17.02;7.62;;;;;;;-0.43;62.91;101783.58;1695682;83;21169;-53
2020/12/07 01:00:38;;;;;;;14.75;7.75;;;;;;;-0.40;62.92;101789.31;1708873;83;21587;-53
2020/12/07 01:03:05;;;;;;;14.10;6.65;;;;;;;-0.41;63.02;101789.73;1705817;83;21973;-53
2020/12/07 01:05:34;;;;;;;16.25;7.42;;;;;;;-0.47;63.17;101789.00;1703777;83;21110;-54
2020/12/07 01:08:02;;;;;;;13.35;6.55;;;;;;;-0.47;63.35;101780.33;1705425;83;21123;-54
2020/12/07 01:10:30;;;;;;;15.65;7.20;;;;;;;-0.42;63.15;101775.02;1692645;83;21173;-58
2020/12/07 01:12:58;;;;;;;13.15;6.45;;;;;;;-0.42;63.24;101772.81;1696534;83;21130;-58
2020/12/07 01:15:27;;;;;;;13.38;7.10;;;;;;;-0.44;63.15;101766.70;1705810;83;21387;-59
2020/12/07 01:17:55;;;;;;;16.35;7.10;;;;;;;-0.48;63.39;101763.94;1683333;83;21582;-58
2020/12/07 01:20:23;;;;;;;14.68;7.17;;;;;;;-0.49;63.43;101767.33;1702566;83;21114;-54
2020/12/07 01:22:51;;;;;;;18.35;7.75;;;;;;;-0.50;63.50;101762.96;1705299;83;21079;-54
2020/12/07 01:25:20;;;;;;;17.37;6.95;;;;;;;-0.49;63.67;101769.02;1707375;83;21134;-53
2020/12/07 01:27:49;;;;;;;12.90;5.80;;;;;;;-0.51;63.63;101768.94;1673187;83;21245;-54
2020/12/07 01:30:18;;;;;;;16.80;7.28;;;;;;;-0.51;63.80;101762.86;1705488;84;21138;-54
2020/12/07 01:32:46;;;;;;;15.58;6.70;;;;;;;-0.49;63.78;101754.40;1690851;83;21186;-59
2020/12/07 01:35:14;;;;;;;16.50;7.03;;;;;;;-0.59;63.92;101750.81;1702735;83;21094;-53
2020/12/07 01:37:41;;;;;;;20.45;8.15;;;;;;;-0.60;63.77;101758.95;1710031;83;21182;-58
2020/12/07 01:40:10;;;;;;;18.75;7.37;;;;;;;-0.63;63.83;101761.78;1707282;83;21200;-58
2020/12/07 01:42:38;;;;;;;16.82;7.28;;;;;;;-0.63;64.07;101776.02;1696998;83;21253;-55
2020/12/07 01:45:06;;;;;;;17.05;7.28;;;;;;;-0.63;64.05;101775.59;1680385;83;21099;-53
2020/12/07 01:47:33;;;;;;;12.88;6.33;;;;;;;-0.64;64.13;101778.98;1691329;83;21516;-53
2020/12/07 01:50:03;;;;;;;14.90;7.13;;;;;;;-0.63;64.22;101768.25;1693059;83;21186;-54
2020/12/07 01:52:31;;;;;;;19.20;8.60;;;;;;;-0.64;64.25;101775.52;1713505;83;21362;-54
2020/12/07 01:54:59;;;;;;;18.20;8.50;;;;;;;-0.64;64.23;101771.22;1662782;83;21177;-58
2020/12/07 01:57:29;;;;;;;18.17;7.35;;;;;;;-0.63;64.41;101770.42;1711866;83;21206;-59
2020/12/07 01:59:58;;;;;;;18.63;8.13;;;;;;;-0.61;64.39;101770.10;1713608;83;21170;-59
2020/12/07 02:05:47;;;;;;;16.57;6.83;;;;;;;-0.61;64.13;101761.05;1828762;76;26883;-51
2020/12/07 02:08:18;;;;;;;17.15;7.80;;;;;;;-0.67;64.37;101769.79;1781158;80;21090;-53
2020/12/07 02:11:14;;;;;;;17.73;7.60;;;;;;;-0.61;64.36;101767.52;1862236;76;27223;-51
2020/12/07 02:13:42;;;;;;;20.40;7.47;;;;;;;-0.66;64.40;101770.25;1816490;78;21136;-52
2020/12/07 02:16:10;;;;;;;15.83;7.25;;;;;;;-0.66;64.50;101772.83;1815114;78;21348;-58
2020/12/07 02:18:43;;;;;;;14.83;7.25;;;;;;;-0.67;64.41;101765.91;1813647;78;21165;-58
2020/12/07 02:21:10;;;;;;;15.50;7.22;;;;;;;-0.67;64.43;101768.88;1797666;78;21577;-58
2020/12/07 02:23:48;;;;;;;17.73;7.72;;;;;;;-0.65;64.37;101762.10;1818726;76;29068;-56
2020/12/07 02:26:17;;;;;;;13.90;6.47;;;;;;;-0.71;64.48;101765.63;1789957;78;20983;-53
2020/12/07 02:28:50;;;;;;;13.40;6.70;;;;;;;-0.72;64.56;101770.31;1781787;80;21203;-58
2020/12/07 02:31:20;;;;;;;19.90;8.58;;;;;;;-0.71;64.57;101768.22;1782288;80;21211;-58
2020/12/07 02:33:48;;;;;;;18.17;7.25;;;;;;;-0.71;64.55;101761.75;1775822;80;21063;-53
2020/12/07 02:36:15;;;;;;;14.87;7.33;;;;;;;-0.72;64.52;101762.56;1759365;80;21114;-58
2020/12/07 02:38:45;;;;;;;17.10;7.65;;;;;;;-0.74;64.56;101766.37;1783378;80;21148;-58
2020/12/07 02:41:13;;;;;;;14.47;6.75;;;;;;;-0.73;64.52;101767.23;1785079;80;21361;-53
2020/12/07 02:43:42;;;;;;;14.53;6.60;;;;;;;-0.76;64.56;101763.67;1781867;80;21153;-53
2020/12/07 02:46:11;;;;;;;13.85;6.95;;;;;;;-0.79;64.54;101765.21;1782873;78;21169;-53
2020/12/07 02:48:38;;;;;;;15.10;6.97;;;;;;;-0.81;64.70;101769.41;1780427;79;21539;-53
2020/12/07 02:51:08;;;;;;;18.98;6.85;;;;;;;-0.90;64.86;101764.20;1782032;80;21135;-53
2020/12/07 02:53:36;;;;;;;18.12;7.37;;;;;;;-0.87;64.83;101764.75;1775921;79;23587;-53
2020/12/07 02:56:04;;;;;;;17.23;8.10;;;;;;;-0.92;65.00;101765.80;1783437;80;21134;-54
2020/12/07 02:58:34;;;;;;;15.33;6.10;;;;;;;-0.91;64.79;101772.75;1779134;80;21113;-54
2020/12/07 03:01:03;;;;;;;12.58;6.40;;;;;;;-0.92;64.78;101767.52;1765249;80;21178;-54
2020/12/07 03:03:32;;;;;;;11.97;5.40;;;;;;;-0.97;64.43;101777.56;1768671;80;21134;-53
2020/12/07 03:06:00;;;;;;;14.98;7.62;;;;;;;-1.01;64.62;101774.31;1765870;80;21409;-53
2020/12/07 03:08:27;;;;;;;10.72;6.25;;;;;;;-1.00;64.74;101775.22;1782532;79;21514;-53
2020/12/07 03:10:55;;;;;;;17.17;7.53;;;;;;;-0.99;64.62;101774.42;1749820;80;21139;-54
2020/12/07 03:13:25;;;;;;;13.50;6.67;;;;;;;-0.98;64.77;101777.50;1779346;80;21169;-53
2020/12/07 03:15:54;;;;;;;12.10;5.85;;;;;;;-1.02;64.51;101786.75;1764510;80;21159;-53
2020/12/07 03:18:24;;;;;;;12.28;6.15;;;;;;;-1.07;64.40;101781.71;1764138;80;21269;-53
2020/12/07 03:20:53;;;;;;;14.10;6.57;;;;;;;-1.12;64.22;101771.12;1744684;80;21172;-58
2020/12/07 03:23:22;;;;;;;12.00;6.83;;;;;;;-1.20;64.06;101771.07;1758088;79;21131;-53
2020/12/07 03:25:50;;;;;;;14.75;6.95;;;;;;;-1.24;64.53;101778.16;1772539;80;21081;-53
2020/12/07 03:28:19;;;;;;;17.73;6.00;;;;;;;-1.21;64.72;101774.08;1787607;80;21089;-54
2020/12/07 03:30:47;;;;;;;13.13;6.03;;;;;;;-1.16;64.71;101774.33;1785135;80;21435;-59
2020/12/07 03:33:15;;;;;;;15.05;6.53;;;;;;;-1.17;64.70;101771.25;1787136;80;21062;-58
2020/12/07 03:35:43;;;;;;;17.30;7.40;;;;;;;-1.16;64.30;101778.63;1778904;80;21144;-58
2020/12/07 03:38:12;;;;;;;16.65;8.00;;;;;;;-1.19;64.41;101762.52;1782348;80;21131;-59
2020/12/07 03:40:39;;;;;;;19.77;7.85;;;;;;;-1.22;64.46;101767.12;1787095;80;21177;-58
2020/12/07 03:43:08;;;;;;;14.63;7.33;;;;;;;-1.19;64.68;101768.98;1773610;78;21208;-58
2020/12/07 03:45:39;;;;;;;16.77;7.42;;;;;;;-1.14;64.70;101757.64;1777773;80;21362;-59
2020/12/07 03:48:07;;;;;;;14.03;7.28;;;;;;;-1.13;64.65;101759.00;1781082;78;21131;-53
2020/12/07 03:50:35;;;;;;;14.98;7.83;;;;;;;-1.14;64.41;101750.77;1787700;79;21129;-53
2020/12/07 03:53:03;;;;;;;13.08;5.83;;;;;;;-1.16;64.65;101753.66;1775022;80;21149;-53
2020/12/07 03:55:33;;;;;;;11.77;6.23;;;;;;;-1.14;64.35;101755.93;1781717;80;21188;-54
2020/12/07 03:58:02;;;;;;;17.73;6.47;;;;;;;-1.19;64.19;101747.02;1780179;80;21178;-54
2020/12/07 04:00:30;;;;;;;15.48;6.85;;;;;;;-1.21;64.35;101750.81;1783947;80;21096;-53
2020/12/07 04:03:02;;;;;;;12.23;6.57;;;;;;;-1.22;64.49;101739.09;1779754;78;21092;-53
2020/12/07 04:05:37;;;;;;;12.33;5.75;;;;;;;-1.27;64.42;101739.22;1775842;80;21207;-53
2020/12/07 04:08:01;;;;;;;15.18;7.22;;;;;;;-1.33;64.15;101738.89;1762279;79;21791;-52
2020/12/07 04:10:28;;;;;;;16.00;7.37;;;;;;;-1.41;64.44;101740.62;1760905;80;21626;-53
2020/12/07 04:12:57;;;;;;;11.50;6.40;;;;;;;-1.41;64.70;101738.42;1757716;80;21136;-53
2020/12/07 04:15:24;;;;;;;15.63;6.83;;;;;;;-1.39;64.79;101735.14;1760691;80;21133;-53
2020/12/07 04:17:52;;;;;;;11.60;5.90;;;;;;;-1.37;64.72;101734.84;1786476;79;21094;-53
2020/12/07 04:20:20;;;;;;;13.13;6.87;;;;;;;-1.38;64.62;101732.14;1766118;80;23579;-53
2020/12/07 04:22:47;;;;;;;15.45;7.58;;;;;;;-1.36;64.75;101726.28;1779832;80;21165;-58
2020/12/07 04:25:15;;;;;;;11.97;6.53;;;;;;;-1.40;64.41;101730.78;1772804;80;21600;-58
2020/12/07 04:27:42;;;;;;;12.23;5.87;;;;;;;-1.42;64.66;101738.84;1781428;80;21708;-59
2020/12/07 04:30:10;;;;;;;17.60;7.60;;;;;;;-1.44;64.48;101743.02;1782777;80;22102;-58
2020/12/07 04:32:38;;;;;;;18.05;7.45;;;;;;;-1.43;64.58;101744.80;1771573;79;23517;-58
2020/12/07 04:35:05;;;;;;;13.90;6.50;;;;;;;-1.42;64.80;101741.80;1782690;80;21595;-58
2020/12/07 04:37:33;;;;;;;13.32;6.37;;;;;;;-1.44;64.69;101741.73;1779597;80;21529;-58
2020/12/07 04:40:00;;;;;;;14.20;6.60;;;;;;;-1.45;64.64;101743.83;1766024;80;21665;-58
2020/12/07 04:42:28;;;;;;;12.45;6.05;;;;;;;-1.43;64.70;101736.15;1774462;80;21517;-58
2020/12/07 04:44:58;;;;;;;17.75;7.08;;;;;;;-1.44;64.73;101739.15;1782652;80;21106;-58
2020/12/07 04:47:26;;;;;;;15.13;6.85;;;;;;;-1.41;64.73;101732.88;1774904;80;21860;-54
2020/12/07 04:49:54;;;;;;;14.93;6.25;;;;;;;-1.37;64.81;101728.77;1776078;80;21631;-53
2020/12/07 04:52:22;;;;;;;13.40;6.42;;;;;;;-1.36;64.84;101726.28;1776846;80;21127;-53
2020/12/07 04:54:49;;;;;;;11.95;6.22;;;;;;;-1.33;64.69;101727.27;1780173;80;21089;-53
2020/12/07 04:57:17;;;;;;;15.48;6.95;;;;;;;-1.32;64.78;101725.17;1776539;80;23512;-52
2020/12/07 04:59:45;;;;;;;12.73;5.65;;;;;;;-1.33;64.72;101721.69;1768648;80;21759;-53
2020/12/07 05:02:12;;;;;;;11.50;5.85;;;;;;;-1.35;64.38;101718.12;1743216;81;21172;-53
2020/12/07 05:04:40;;;;;;;15.93;6.85;;;;;;;-1.36;64.67;101718.53;1744541;81;21554;-58
2020/12/07 05:07:08;;;;;;;13.25;5.28;;;;;;;-1.35;64.61;101716.83;1727420;80;21569;-58
2020/12/07 05:09:37;;;;;;;12.18;6.10;;;;;;;-1.36;64.65;101716.34;1739659;80;21368;-58
2020/12/07 05:12:16;;;;;;;15.15;5.70;;;;;;;-1.36;64.62;101721.50;1755721;80;21137;-58
2020/12/07 05:14:39;;;;;;;12.85;6.42;;;;;;;-1.36;64.50;101712.46;1730795;82;21156;-53
2020/12/07 05:17:07;;;;;;;12.25;5.03;;;;;;;-1.43;64.12;101716.39;1731589;82;21098;-58
2020/12/07 05:19:34;;;;;;;16.45;6.12;;;;;;;-1.56;64.40;101712.21;1784197;79;21612;-58
2020/12/07 05:22:05;;;;;;;14.23;6.62;;;;;;;-1.57;64.71;101713.39;1753694;80;21203;-58
2020/12/07 05:24:32;;;;;;;10.43;5.00;;;;;;;-1.56;64.86;101716.09;1728353;80;21643;-58
2020/12/07 05:27:00;;;;;;;12.98;6.15;;;;;;;-1.51;64.92;101715.92;1778813;79;21199;-58
2020/12/07 05:29:36;;;;;;;11.22;5.80;;;;;;;-1.48;64.90;101722.07;1751480;80;21086;-59
2020/12/07 05:32:00;;;;;;;13.25;5.78;;;;;;;-1.44;64.91;101717.58;1777575;79;21155;-54
2020/12/07 05:34:28;;;;;;;13.20;6.40;;;;;;;-1.44;64.90;101733.98;1777500;80;23434;-53
2020/12/07 05:36:56;;;;;;;15.70;7.17;;;;;;;-1.47;64.71;101731.60;1782547;80;21061;-53
2020/12/07 05:39:25;;;;;;;20.37;6.87;;;;;;;-1.54;64.94;101722.20;1780655;80;21919;-52
2020/12/07 05:41:55;;;;;;;16.93;7.55;;;;;;;-1.49;64.84;101728.94;1773221;80;21125;-57
2020/12/07 05:44:22;;;;;;;12.68;5.58;;;;;;;-1.54;64.58;101726.48;1751510;80;21164;-57
2020/12/07 05:46:52;;;;;;;18.25;7.20;;;;;;;-1.62;64.11;101727.34;1756293;80;22738;-58
2020/12/07 05:49:20;;;;;;;13.48;6.55;;;;;;;-1.66;64.52;101727.95;1758515;80;21101;-58
2020/12/07 05:51:59;;;;;;;16.07;6.75;;;;;;;-1.67;64.79;101738.66;1764762;80;21361;-54
2020/12/07 05:54:27;;;;;;;21.40;6.75;;;;;;;-1.66;64.59;101737.86;1783945;80;21517;-59
2020/12/07 05:56:55;;;;;;;15.38;7.17;;;;;;;-1.70;64.67;101748.80;1714903;80;21604;-59
2020/12/07 05:59:31;;;;;;;22.45;15.23;;;;;;;-1.70;64.64;101751.39;1784252;80;21252;-59
2020/12/07 06:01:59;;;;;;;20.17;10.95;;;;;;;-1.67;64.95;101755.45;1777869;80;21103;-59
2020/12/07 06:04:27;;;;;;;39.00;22.45;;;;;;;-1.60;64.65;101745.48;1780694;80;21486;-59
2020/12/07 06:06:58;;;;;;;18.52;10.15;;;;;;;-1.59;64.77;101745.98;1727814;80;21663;-59
2020/12/07 06:09:26;;;;;;;19.92;9.70;;;;;;;-1.57;64.39;101746.97;1784308;80;21042;-59
2020/12/07 06:12:04;;;;;;;28.90;12.82;;;;;;;-1.61;64.00;101740.74;1781738;80;21195;-59
2020/12/07 06:14:32;;;;;;;18.12;8.90;;;;;;;-1.61;64.63;101738.55;1779870;79;21152;-59
2020/12/07 07:11:33;;;;;;;20.03;10.17;;;;;;;-2.42;69.19;101713.95;1833579;76;25668;-51
2020/12/07 07:14:01;;;;;;;21.30;9.48;;;;;;;-2.43;68.59;101723.77;1744476;81;21531;-51
2020/12/07 07:16:30;;;;;;;19.02;8.33;;;;;;;-2.41;67.87;101720.89;1741984;82;23599;-52
2020/12/07 07:18:57;;;;;;;18.70;8.93;;;;;;;-2.41;67.57;101713.16;1726014;81;21520;-54
2020/12/07 07:21:25;;;;;;;17.75;7.10;;;;;;;-2.40;67.86;101716.22;1784605;79;21646;-55
2020/12/07 07:23:54;;;;;;;20.80;9.48;;;;;;;-2.35;67.57;101716.91;1784333;79;21504;-54
2020/12/07 07:26:29;;;;;;;18.35;8.35;;;;;;;-2.33;67.54;101709.78;1746727;80;21506;-53
2020/12/07 07:28:52;;;;;;;17.80;8.15;;;;;;;-2.30;67.51;101706.48;1772879;80;21646;-53
2020/12/07 07:31:19;;;;;;;16.55;7.83;;;;;;;-2.28;67.58;101697.16;1770415;79;21593;-52
2020/12/07 07:33:46;;;;;;;28.35;9.65;;;;;;;-2.26;67.45;101692.98;1752770;80;21575;-53
2020/12/07 07:36:23;;;;;;;21.90;9.53;;;;;;;-2.23;67.42;101688.02;1777935;80;21731;-53
2020/12/07 07:38:58;;;;;;;17.02;8.40;;;;;;;-2.22;66.97;101692.79;1782810;79;21671;-53
2020/12/07 07:41:26;;;;;;;15.30;7.42;;;;;;;-2.24;66.84;101697.84;1783378;79;21198;-53
2020/12/07 07:43:57;;;;;;;14.65;6.80;;;;;;;-2.26;66.82;101711.03;1767395;80;21093;-53
2020/12/07 07:46:24;;;;;;;15.00;7.40;;;;;;;-2.24;66.85;101706.86;1718353;83;21516;-54
2020/12/07 07:52:10;;;;;;;16.10;6.90;;;;;;;-2.23;66.89;101702.61;1694498;82;21509;-54
2020/12/07 08:16:21;;;;;;;;;;;;;;;-2.19;66.31;101708.04;1782626;80;21674;-53
2020/12/07 08:18:53;;;;;;;19.02;7.95;;;;;;;-2.16;66.08;101715.06;1772969;79;20570;-54
2020/12/07 08:21:32;;;;;;;13.32;6.95;;;;;;;-2.18;66.08;101714.08;1779943;79;21185;-53
2020/12/07 08:24:06;;;;;;;16.97;8.03;;;;;;;-2.16;66.10;101704.74;1789278;79;21121;-53
2020/12/07 08:26:42;;;;;;;16.67;8.28;;;;;;;-2.16;66.26;101704.74;1779158;80;21066;-53
2020/12/07 08:29:11;;;;;;;18.82;7.37;;;;;;;-2.13;66.24;101703.64;1758687;80;21153;-54
2020/12/07 08:31:40;;;;;;;17.65;7.33;;;;;;;-2.11;66.27;101701.66;1768164;80;21466;-53
2020/12/07 08:34:13;;;;;;;19.75;8.05;;;;;;;-2.06;66.16;101693.31;1771579;80;21181;-55
2020/12/07 08:36:44;;;;;;;18.12;8.03;;;;;;;-2.04;66.13;101689.14;1783972;80;21462;-54
2020/12/07 08:39:12;;;;;;;18.32;8.63;;;;;;;-2.04;65.96;101678.40;1782218;79;21511;-54
2020/12/07 08:41:40;;;;;;;16.93;8.28;;;;;;;-1.99;66.03;101669.66;1769061;80;21156;-54
2020/12/07 08:44:09;;;;;;;17.77;9.03;;;;;;;-1.98;66.14;101672.70;1784216;79;21701;-56
2020/12/07 08:46:39;;;;;;;20.02;8.18;;;;;;;-1.93;65.66;101663.97;1782304;80;21192;-54
2020/12/07 08:49:07;;;;;;;18.82;7.90;;;;;;;-1.93;66.05;101666.12;1767605;80;21612;-54
2020/12/07 08:51:36;;;;;;;18.50;7.65;;;;;;;-1.92;66.13;101668.33;1778980;80;21618;-55
2020/12/07 08:54:05;;;;;;;17.12;8.33;;;;;;;-1.92;65.99;101660.59;1762010;80;21085;-55
2020/12/07 08:56:33;;;;;;;21.20;10.58;;;;;;;-1.86;66.04;101646.76;1705006;83;21089;-55
2020/12/07 08:59:00;;;;;;;20.25;9.23;;;;;;;-1.81;66.01;101648.80;1710520;82;21637;-54
2020/12/07 09:01:28;;;;;;;17.70;8.13;;;;;;;-1.74;66.00;101645.28;1714799;82;21619;-54
2020/12/07 09:03:56;;;;;;;17.87;8.58;;;;;;;-1.71;66.30;101627.39;1777236;80;21092;-54
2020/12/07 09:06:24;;;;;;;17.23;8.35;;;;;;;-1.70;66.00;101630.47;1781133;80;21151;-54
2020/12/07 09:08:51;;;;;;;17.90;7.37;;;;;;;-1.70;65.77;101630.47;1748109;80;21237;-54
2020/12/07 09:11:21;;;;;;;21.07;8.70;;;;;;;-1.70;66.03;101615.85;1757370;80;21136;-54
2020/12/07 09:13:49;;;;;;;17.32;8.25;;;;;;;-1.71;65.73;101607.61;1779562;80;21667;-54
2020/12/07 09:16:17;;;;;;;15.90;7.80;;;;;;;-1.73;65.74;101619.96;1775344;80;21105;-54
2020/12/07 09:18:45;;;;;;;16.35;7.17;;;;;;;-1.75;66.02;101618.98;1757101;80;21254;-54
2020/12/07 09:21:12;;;;;;;17.48;8.53;;;;;;;-1.71;66.08;101611.91;1772863;78;21101;-54
2020/12/07 09:23:41;;;;;;;14.35;7.78;;;;;;;-1.69;66.17;101613.76;1787963;78;22089;-53
2020/12/07 09:26:09;;;;;;;19.48;8.55;;;;;;;-1.69;66.23;101603.84;1779338;80;21613;-54
2020/12/07 09:28:37;;;;;;;15.68;7.55;;;;;;;-1.67;65.93;101599.25;1780140;80;21610;-54
2020/12/07 09:31:05;;;;;;;17.25;7.65;;;;;;;-1.66;65.99;101597.58;1772695;80;21084;-54
2020/12/07 09:33:36;;;;;;;16.97;8.08;;;;;;;-1.61;66.01;101600.02;1780670;78;21594;-53
2020/12/07 09:36:04;;;;;;;13.98;7.80;;;;;;;-1.62;65.99;101589.20;1778342;80;21356;-54
2020/12/07 09:38:33;;;;;;;14.98;7.37;;;;;;;-1.62;65.81;101590.49;1787774;80;21165;-54
2020/12/07 09:41:00;;;;;;;16.27;8.60;;;;;;;-1.60;66.14;101585.02;1785923;78;21552;-54
2020/12/07 09:43:28;;;;;;;17.48;8.40;;;;;;;-1.53;66.73;101587.53;1771105;80;21603;-55
2020/12/07 09:45:55;;;;;;;21.62;9.50;;;;;;;-1.44;67.26;101591.02;1786155;80;21469;-55
2020/12/07 09:48:23;;;;;;;18.92;10.53;;;;;;;-1.39;66.76;101589.59;1759551;80;23596;-54
2020/12/07 09:50:51;;;;;;;16.97;8.23;;;;;;;-1.37;66.51;101591.48;1761323;80;21901;-54
2020/12/07 09:53:19;;;;;;;21.00;7.95;;;;;;;-1.35;66.38;101585.09;1761881;80;21586;-54
2020/12/07 09:55:47;;;;;;;16.30;7.08;;;;;;;-1.32;66.13;101578.80;1765103;78;21601;-54
2020/12/07 09:58:15;;;;;;;14.38;8.03;;;;;;;-1.30;66.15;101586.63;1782539;78;21143;-55
2020/12/07 10:00:43;;;;;;;16.37;8.33;;;;;;;-1.26;65.92;101585.98;1773927;78;22071;-54
2020/12/07 10:03:11;;;;;;;15.38;7.37;;;;;;;-1.26;65.92;101588.19;1772911;78;21590;-55
2020/12/07 10:05:40;;;;;;;17.65;8.18;;;;;;;-1.24;66.26;101585.29;1770110;80;21160;-54
2020/12/07 10:08:08;;;;;;;19.32;8.78;;;;;;;-1.22;66.04;101577.61;1776875;78;21136;-55
2020/12/07 10:10:36;;;;;;;14.70;7.12;;;;;;;-1.21;65.87;101567.38;1785900;78;21211;-56
2020/12/07 10:13:06;;;;;;;13.75;6.37;;;;;;;-1.26;65.82;101567.91;1776225;80;21262;-54
2020/12/07 10:15:35;;;;;;;16.05;8.65;;;;;;;-1.32;66.03;101566.30;1768936;80;21078;-54
2020/12/07 10:18:03;;;;;;;14.18;8.18;;;;;;;-1.32;65.72;101567.18;1784076;80;21109;-54
2020/12/07 10:20:31;;;;;;;15.43;7.12;;;;;;;-1.32;65.87;101565.89;1761842;80;21090;-54
2020/12/07 10:22:59;;;;;;;16.17;7.60;;;;;;;-1.32;65.79;101571.47;1779843;80;21145;-54
2020/12/07 10:25:26;;;;;;;14.95;7.30;;;;;;;-1.32;65.75;101571.47;1781332;80;23586;-54
2020/12/07 10:27:54;;;;;;;15.48;7.85;;;;;;;-1.30;65.84;101575.00;1774195;80;21135;-55
2020/12/07 10:30:22;;;;;;;14.75;7.83;;;;;;;-1.29;65.90;101571.61;1774065;80;21127;-54
2020/12/07 10:32:50;;;;;;;13.78;6.28;;;;;;;-1.36;65.98;101569.10;1773549;80;21589;-55
2020/12/07 10:35:18;;;;;;;14.53;7.22;;;;;;;-1.32;65.93;101565.89;1767863;80;21097;-54
2020/12/07 10:37:47;;;;;;;16.00;7.77;;;;;;;-1.28;66.02;101566.94;1780623;79;21247;-54
2020/12/07 10:40:15;;;;;;;16.02;7.20;;;;;;;-1.25;65.88;101560.26;1734442;80;21782;-55
2020/12/07 10:42:44;;;;;;;14.83;7.05;;;;;;;-1.25;65.88;101561.55;1728089;82;21595;-54
2020/12/07 10:45:12;;;;;;;16.27;7.30;;;;;;;-1.24;65.94;101568.50;1727844;82;21606;-54
2020/12/07 10:47:40;;;;;;;15.25;7.62;;;;;;;-1.22;65.90;101566.89;1783814;80;21142;-54
2020/12/07 10:50:08;;;;;;;17.57;8.20;;;;;;;-1.25;65.95;101568.01;1783049;80;21216;-55
2020/12/07 10:52:36;;;;;;;14.35;7.60;;;;;;;-1.23;66.06;101570.66;1779270;80;21168;-61
2020/12/07 10:55:03;;;;;;;12.98;6.28;;;;;;;-1.21;66.08;101569.96;1783906;80;21099;-61
2020/12/07 10:57:31;;;;;;;17.60;7.45;;;;;;;-1.17;65.87;101560.67;1760468;80;21772;-62
2020/12/07 10:59:59;;;;;;;14.07;7.10;;;;;;;-1.17;65.90;101560.67;1783343;80;21114;-62
2020/12/07 11:02:27;;;;;;;14.47;6.90;;;;;;;-1.24;66.14;101554.28;1764555;80;21257;-61
2020/12/07 11:04:54;;;;;;;13.20;7.40;;;;;;;-1.22;66.20;101559.14;1775492;80;21621;-61
2020/12/07 11:07:24;;;;;;;13.55;6.70;;;;;;;-1.21;66.25;101555.75;1779843;80;21515;-61
2020/12/07 11:09:54;;;;;;;13.22;7.12;;;;;;;-1.16;66.12;101562.45;1775211;80;21119;-61
2020/12/07 11:12:24;;;;;;;15.30;6.95;;;;;;;-1.18;66.24;101547.68;1763546;80;21607;-61
2020/12/07 11:14:51;;;;;;;14.90;7.53;;;;;;;-1.17;66.12;101549.46;1756070;80;22146;-61
2020/12/07 11:17:18;;;;;;;14.47;7.40;;;;;;;-1.17;66.12;101546.88;1778909;78;21129;-61
2020/12/07 11:19:46;;;;;;;14.80;7.58;;;;;;;-1.18;66.27;101551.56;1787353;80;21606;-61
2020/12/07 11:22:13;;;;;;;18.32;8.13;;;;;;;-1.20;66.42;101548.48;1778150;78;22105;-61
2020/12/07 11:24:41;;;;;;;14.73;7.67;;;;;;;-1.17;66.37;101550.75;1768211;80;21518;-61
2020/12/07 11:27:09;;;;;;;17.35;9.25;;;;;;;-1.16;66.34;101547.36;1772853;80;22099;-61
2020/12/07 11:29:36;;;;;;;17.27;8.63;;;;;;;-1.18;66.37;101547.27;1772467;80;21681;-61
2020/12/07 11:32:04;;;;;;;14.93;7.33;;;;;;;-1.20;66.41;101548.87;1754734;80;21115;-61
2020/12/07 11:34:32;;;;;;;17.35;8.20;;;;;;;-1.21;66.49;101547.09;1731269;81;21559;-61
2020/12/07 11:36:59;;;;;;;14.53;7.55;;;;;;;-1.21;66.69;101549.67;1727674;82;21632;-61
2020/12/07 11:42:12;;;;;;;18.80;8.85;;;;;;;-1.22;66.51;101542.34;1770188;80;21582;-61
2020/12/07 11:44:34;;;;;;;17.95;9.08;;;;;;;-1.20;66.66;101544.61;1766475;80;21061;-61
2020/12/07 11:49:39;;;;;;;13.62;7.55;;;;;;;-1.13;67.07;101544.53;1867962;76;28511;-58
2020/12/07 11:52:07;;;;;;;24.52;11.68;;;;;;;-1.10;66.93;101541.20;1763234;80;21159;-58
2020/12/07 11:54:36;;;;;;;15.95;8.45;;;;;;;-1.09;66.81;101537.43;1757988;80;21589;-59
2020/12/07 11:57:05;;;;;;;21.25;8.45;;;;;;;-1.09;66.82;101532.27;1783874;79;21567;-59
2020/12/07 11:59:34;;;;;;;16.90;8.05;;;;;;;-1.08;66.86;101526.67;1796242;79;21039;-61
2020/12/07 12:02:05;;;;;;;18.92;7.80;;;;;;;-1.08;66.94;101525.00;1793685;79;21145;-61
2020/12/07 12:04:33;;;;;;;61.63;11.10;;;;;;;-1.06;66.78;101519.89;1791315;79;21592;-61
2020/12/07 12:07:01;;;;;;;17.17;8.70;;;;;;;-1.13;66.86;101517.40;1784060;79;21374;-60
2020/12/07 12:09:29;;;;;;;18.35;8.53;;;;;;;-1.10;66.96;101517.56;1783806;79;20984;-60
2020/12/07 12:11:59;;;;;;;13.72;7.87;;;;;;;-1.11;67.07;101515.78;1804073;79;21133;-61
2020/12/07 12:14:27;;;;;;;16.62;8.15;;;;;;;-1.11;67.02;101520.95;1787608;79;21095;-60
2020/12/07 12:16:56;;;;;;;16.97;8.30;;;;;;;-1.10;67.24;101517.56;1798102;78;21726;-61
2020/12/07 12:19:24;;;;;;;15.63;7.70;;;;;;;-1.06;67.28;101523.39;1792485;79;21254;-61
2020/12/07 12:21:52;;;;;;;16.25;8.40;;;;;;;-1.07;67.19;101522.90;1752331;80;21875;-60
2020/12/07 12:24:21;;;;;;;14.73;7.60;;;;;;;-1.10;67.29;101524.02;1741185;81;21090;-61
2020/12/07 12:26:49;;;;;;;12.85;6.40;;;;;;;-1.11;67.42;101531.29;1789194;79;21154;-60
2020/12/07 12:29:17;;;;;;;12.33;6.67;;;;;;;-1.09;67.51;101527.48;1772352;80;21493;-61
2020/12/07 12:31:46;;;;;;;14.47;7.35;;;;;;;-1.07;67.31;101518.12;1757338;80;21254;-60
2020/12/07 12:34:14;;;;;;;13.80;7.83;;;;;;;-1.08;67.48;101518.92;1767074;80;21208;-61
2020/12/07 12:36:43;;;;;;;11.60;6.55;;;;;;;-1.12;67.34;101520.89;1742314;80;21189;-61
2020/12/07 12:39:11;;;;;;;14.87;7.45;;;;;;;-1.12;67.51;101516.59;1763786;80;21130;-60
2020/12/07 12:41:39;;;;;;;14.23;8.65;;;;;;;-1.12;67.57;101519.17;1765768;79;21131;-60
2020/12/07 12:44:10;;;;;;;17.17;7.85;;;;;;;-1.10;67.65;101525.31;1753003;80;21354;-60
2020/12/07 12:46:37;;;;;;;;;;;;;;;-1.06;67.61;101533.72;1759001;80;21610;-61
2020/12/07 12:49:07;;;;;;;14.40;7.05;;;;;;;-1.03;67.71;101536.86;1755173;81;20251;-61
2020/12/07 12:51:35;;;;;;;19.35;9.55;;;;;;;-1.02;67.42;101534.77;1796757;79;21157;-61